createdAt,value
2022-08-31T00:00:33.597Z,3.88
2022-08-31T00:03:19.467Z,4.20
2022-08-31T00:05:47.095Z,3.40
2022-08-31T00:08:14.671Z,3.78
2022-08-31T00:10:46.042Z,4.28
2022-08-31T00:13:14.111Z,4.75
2022-08-31T00:15:43.150Z,4.10
2022-08-31T00:18:10.728Z,4.07
2022-08-31T00:20:37.807Z,3.88
2022-08-31T00:23:08.732Z,4.25
2022-08-31T00:25:39.386Z,4.15
2022-08-31T00:28:09.839Z,4.50
2022-08-31T00:30:37.350Z,4.57
2022-08-31T00:33:05.852Z,4.80
2022-08-31T00:35:38.386Z,4.80
2022-08-31T00:38:06.095Z,4.60
2022-08-31T00:40:44.233Z,4.95
2022-08-31T00:43:31.759Z,5.60
2022-08-31T00:45:58.721Z,4.80
2022-08-31T00:48:25.772Z,5.07
2022-08-31T00:50:53.001Z,4.97
2022-08-31T00:53:20.202Z,4.85
2022-08-31T00:55:47.507Z,5.05
2022-08-31T00:58:14.634Z,4.97
2022-08-31T01:00:46.004Z,5.55
2022-08-31T01:03:12.969Z,5.05
2022-08-31T01:05:40.342Z,5.43
2022-08-31T01:08:07.832Z,4.70
2022-08-31T01:10:43.897Z,4.32
2022-08-31T01:13:14.192Z,4.88
2022-08-31T01:15:51.287Z,5.43
2022-08-31T01:18:23.733Z,5.57
2022-08-31T01:21:14.081Z,5.30
2022-08-31T01:23:44.730Z,5.13
2022-08-31T01:26:19.979Z,5.88
2022-08-31T01:28:47.132Z,5.03
2022-08-31T01:31:25.445Z,6.00
2022-08-31T01:33:52.693Z,5.63
2022-08-31T01:36:20.997Z,5.90
2022-08-31T01:38:52.773Z,5.72
2022-08-31T01:41:21.334Z,6.05
2022-08-31T01:43:48.657Z,5.15
2022-08-31T01:46:16.267Z,5.43
2022-08-31T01:48:45.991Z,5.28
2022-08-31T01:51:16.593Z,5.03
2022-08-31T01:53:48.506Z,5.32
2022-08-31T01:56:28.192Z,5.63
2022-08-31T01:58:55.446Z,5.85
2022-08-31T02:01:33.877Z,6.00
2022-08-31T02:04:05.664Z,5.32
2022-08-31T02:06:34.001Z,5.65
2022-08-31T02:09:02.750Z,5.82
2022-08-31T02:11:29.872Z,5.47
2022-08-31T02:13:57.099Z,5.63
2022-08-31T02:16:24.375Z,5.38
2022-08-31T02:18:51.690Z,5.30
2022-08-31T02:21:18.969Z,6.00
2022-08-31T02:23:45.867Z,6.65
2022-08-31T02:26:14.190Z,5.45
2022-08-31T02:28:41.324Z,5.32
2022-08-31T02:31:08.370Z,6.15
2022-08-31T02:33:35.487Z,5.72
2022-08-31T02:36:03.203Z,5.38
2022-08-31T02:38:33.508Z,5.75
2022-08-31T02:41:02.412Z,5.43
2022-08-31T02:43:29.532Z,5.80
2022-08-31T02:45:56.451Z,5.65
2022-08-31T02:48:23.929Z,5.75
2022-08-31T02:50:52.717Z,5.57
2022-08-31T02:53:22.967Z,5.22
2022-08-31T02:55:50.236Z,6.03
2022-08-31T02:58:23.843Z,5.97
2022-08-31T03:00:52.073Z,5.47
2022-08-31T03:03:19.571Z,5.97
2022-08-31T03:05:46.620Z,6.07
2022-08-31T03:08:14.126Z,5.55
2022-08-31T03:10:41.112Z,5.93
2022-08-31T03:13:07.915Z,5.72
2022-08-31T03:15:34.898Z,5.82
2022-08-31T03:18:01.835Z,5.57
2022-08-31T03:20:33.686Z,6.05
2022-08-31T03:23:01.634Z,6.30
2022-08-31T03:25:30.659Z,5.32
2022-08-31T03:27:57.574Z,5.43
2022-08-31T03:30:25.614Z,6.30
2022-08-31T03:32:55.001Z,5.95
2022-08-31T03:35:28.055Z,5.28
2022-08-31T03:37:55.003Z,5.63
2022-08-31T03:40:22.045Z,5.82
2022-08-31T03:42:50.016Z,5.30
2022-08-31T03:45:16.891Z,5.60
2022-08-31T03:47:44.727Z,5.75
2022-08-31T03:50:13.315Z,5.25
2022-08-31T03:52:40.198Z,5.45
2022-08-31T03:55:10.749Z,5.95
2022-08-31T03:57:37.788Z,5.05
2022-08-31T04:00:07.902Z,5.78
2022-08-31T04:02:39.428Z,5.90
2022-08-31T04:05:08.070Z,5.15
2022-08-31T04:07:42.994Z,5.80
2022-08-31T04:10:14.528Z,6.00
2022-08-31T04:12:41.702Z,5.82
2022-08-31T04:15:09.980Z,5.18
2022-08-31T04:17:37.093Z,5.70
2022-08-31T04:20:06.218Z,5.68
2022-08-31T04:22:33.686Z,5.97
2022-08-31T04:25:00.559Z,5.82
2022-08-31T04:27:27.446Z,5.75
2022-08-31T04:29:54.303Z,5.97
2022-08-31T04:32:21.601Z,5.70
2022-08-31T04:34:48.504Z,5.40
2022-08-31T04:37:23.774Z,5.88
2022-08-31T04:39:52.101Z,5.00
2022-08-31T04:42:19.380Z,5.25
2022-08-31T04:44:46.373Z,4.95
2022-08-31T04:47:13.282Z,5.30
2022-08-31T04:49:40.260Z,5.03
2022-08-31T04:52:08.316Z,6.20
2022-08-31T04:54:35.208Z,5.72
2022-08-31T04:57:02.139Z,5.57
2022-08-31T04:59:29.019Z,6.28
2022-08-31T05:01:56.370Z,6.22
2022-08-31T05:04:24.644Z,5.97
2022-08-31T05:06:51.959Z,6.80
2022-08-31T05:09:23.025Z,5.43
2022-08-31T05:11:52.105Z,6.72
2022-08-31T05:14:19.522Z,5.97
2022-08-31T05:16:46.837Z,6.07
2022-08-31T05:19:13.862Z,5.82
2022-08-31T05:21:43.466Z,5.22
2022-08-31T05:24:16.613Z,6.05
2022-08-31T05:26:48.661Z,6.60
2022-08-31T05:29:19.832Z,5.55
2022-08-31T05:31:51.640Z,6.60
2022-08-31T05:34:21.810Z,6.70
2022-08-31T05:36:56.135Z,6.72
2022-08-31T05:39:24.467Z,5.85
2022-08-31T05:41:51.636Z,6.63
2022-08-31T05:44:21.155Z,5.82
2022-08-31T05:46:57.562Z,5.95
2022-08-31T05:49:32.335Z,6.38
2022-08-31T05:52:00.813Z,5.82
2022-08-31T05:54:28.822Z,6.25
2022-08-31T05:57:01.206Z,6.43
2022-08-31T05:59:30.979Z,5.97
2022-08-31T06:01:58.282Z,6.70
2022-08-31T06:04:25.398Z,6.10
2022-08-31T06:06:52.410Z,5.60
2022-08-31T06:09:19.401Z,6.55
2022-08-31T06:11:47.340Z,5.72
2022-08-31T06:14:15.292Z,5.85
2022-08-31T06:16:45.264Z,6.03
2022-08-31T06:19:12.251Z,6.53
2022-08-31T06:21:50.455Z,6.63
2022-08-31T06:24:19.821Z,6.22
2022-08-31T06:26:58.319Z,6.15
2022-08-31T06:29:29.153Z,6.28
2022-08-31T06:31:56.066Z,6.57
2022-08-31T06:34:24.654Z,5.72
2022-08-31T06:36:51.529Z,6.15
2022-08-31T06:39:18.696Z,6.32
2022-08-31T06:41:45.624Z,6.13
2022-08-31T06:44:14.089Z,5.63
2022-08-31T06:46:42.256Z,6.22
2022-08-31T06:49:15.067Z,5.70
2022-08-31T06:51:42.085Z,6.10
2022-08-31T06:54:29.149Z,6.30
2022-08-31T06:57:02.757Z,4.97
2022-08-31T06:59:30.192Z,5.57
2022-08-31T07:02:02.908Z,6.25
2022-08-31T07:04:34.369Z,5.47
2022-08-31T07:07:01.987Z,5.68
2022-08-31T07:09:29.049Z,5.60
2022-08-31T07:11:55.894Z,5.35
2022-08-31T07:14:27.458Z,5.20
2022-08-31T07:16:57.688Z,4.95
2022-08-31T07:19:26.411Z,5.00
2022-08-31T07:21:59.721Z,5.43
2022-08-31T07:24:31.333Z,5.50
2022-08-31T07:27:04.364Z,5.70
2022-08-31T07:29:40.244Z,4.80
2022-08-31T07:32:11.050Z,4.88
2022-08-31T07:34:38.654Z,5.18
2022-08-31T07:37:26.062Z,5.55
2022-08-31T07:40:12.603Z,5.18
2022-08-31T07:42:44.720Z,5.05
2022-08-31T07:45:22.982Z,4.78
2022-08-31T07:47:52.876Z,4.65
2022-08-31T07:50:21.014Z,4.90
2022-08-31T07:52:53.921Z,4.93
2022-08-31T07:55:24.284Z,4.93
2022-08-31T07:57:54.796Z,4.93
2022-08-31T08:00:29.857Z,5.32
2022-08-31T08:02:57.012Z,4.75
2022-08-31T08:05:28.981Z,5.75
2022-08-31T08:08:08.410Z,5.35
2022-08-31T08:10:43.686Z,4.65
2022-08-31T08:13:16.012Z,4.53
2022-08-31T08:15:42.920Z,4.97
2022-08-31T08:18:12.152Z,5.78
2022-08-31T08:20:40.180Z,5.15
2022-08-31T08:23:15.097Z,4.55
2022-08-31T08:25:46.452Z,4.72
2022-08-31T08:28:38.783Z,4.70
2022-08-31T08:31:12.961Z,4.30
2022-08-31T08:33:40.076Z,5.45
2022-08-31T08:36:08.719Z,4.45
2022-08-31T08:38:43.509Z,5.10
2022-08-31T08:41:19.964Z,4.70
2022-08-31T08:43:57.304Z,4.95
2022-08-31T08:46:40.170Z,4.38
2022-08-31T08:49:18.084Z,4.60
2022-08-31T08:51:48.679Z,4.30
2022-08-31T08:54:30.878Z,4.95
2022-08-31T08:57:01.482Z,4.22
2022-08-31T08:59:29.495Z,4.85
2022-08-31T09:02:01.909Z,4.97
2022-08-31T09:04:59.791Z,4.38
2022-08-31T09:08:10.329Z,4.30
2022-08-31T09:11:07.304Z,4.43
2022-08-31T09:14:19.229Z,4.70
2022-08-31T09:16:50.225Z,5.05
2022-08-31T09:19:19.759Z,4.82
2022-08-31T09:21:57.836Z,4.72
2022-08-31T09:24:30.145Z,4.53
2022-08-31T09:27:19.118Z,4.95
2022-08-31T09:29:59.352Z,4.97
2022-08-31T09:32:31.946Z,4.97
2022-08-31T09:35:23.918Z,5.22
2022-08-31T09:38:07.755Z,4.38
2022-08-31T09:40:48.544Z,4.65
2022-08-31T09:43:28.681Z,4.60
2022-08-31T09:46:22.101Z,3.78
2022-08-31T09:48:56.420Z,3.28
2022-08-31T09:51:34.693Z,4.03
2022-08-31T09:54:35.715Z,3.88
2022-08-31T09:57:07.034Z,3.83
2022-08-31T09:59:47.075Z,4.63
2022-08-31T10:02:37.805Z,4.20
2022-08-31T10:08:32.763Z,3.53
2022-08-31T10:11:11.304Z,3.70
2022-08-31T10:13:57.074Z,3.45
2022-08-31T10:16:30.990Z,4.47
2022-08-31T10:19:07.533Z,4.25
2022-08-31T10:21:53.443Z,3.78
2022-08-31T10:24:48.745Z,3.25
2022-08-31T10:27:32.170Z,3.78
2022-08-31T10:30:10.215Z,4.53
2022-08-31T10:33:14.486Z,4.25
2022-08-31T10:36:00.598Z,3.63
2022-08-31T10:38:41.385Z,4.22
2022-08-31T10:44:18.175Z,3.92
2022-08-31T10:46:45.906Z,3.97
2022-08-31T10:49:13.351Z,4.43
2022-08-31T10:52:02.311Z,4.90
2022-08-31T10:54:51.180Z,4.68
2022-08-31T10:57:51.154Z,4.55
2022-08-31T11:00:45.767Z,4.65
2022-08-31T11:03:46.971Z,4.22
2022-08-31T11:06:45.202Z,5.15
2022-08-31T11:09:25.008Z,4.93
2022-08-31T11:12:06.898Z,5.15
2022-08-31T11:15:30.788Z,4.57
2022-08-31T11:18:25.466Z,4.65
2022-08-31T11:21:20.260Z,4.72
2022-08-31T11:24:00.033Z,4.50
2022-08-31T11:27:11.753Z,4.97
2022-08-31T11:30:00.846Z,4.95
2022-08-31T11:32:46.254Z,5.60
2022-08-31T11:35:15.597Z,5.30
2022-08-31T11:37:55.746Z,5.47
2022-08-31T11:40:43.967Z,5.43
2022-08-31T11:43:33.690Z,6.40
2022-08-31T11:46:26.810Z,5.82
2022-08-31T11:48:54.846Z,5.60
2022-08-31T11:51:42.974Z,6.00
2022-08-31T11:54:41.839Z,5.70
2022-08-31T11:57:17.626Z,5.68
2022-08-31T11:59:49.290Z,4.82
2022-08-31T12:02:23.001Z,4.70
2022-08-31T12:04:53.475Z,4.93
2022-08-31T12:07:28.301Z,4.20
2022-08-31T12:10:28.266Z,4.85
2022-08-31T12:13:30.892Z,4.07
2022-08-31T12:16:23.783Z,4.70
2022-08-31T12:19:36.485Z,4.32
2022-08-31T12:23:11.014Z,3.95
2022-08-31T12:26:26.302Z,4.03
2022-08-31T12:29:41.460Z,4.32
2022-08-31T12:32:36.212Z,4.82
2022-08-31T12:35:18.064Z,5.13
2022-08-31T12:37:45.529Z,4.68
2022-08-31T12:40:19.902Z,4.63
2022-08-31T12:43:03.275Z,4.80
2022-08-31T12:46:26.017Z,5.07
2022-08-31T12:49:38.727Z,4.28
2022-08-31T12:52:46.749Z,4.78
2022-08-31T12:55:25.778Z,4.32
2022-08-31T12:58:12.542Z,4.75
2022-08-31T13:00:40.707Z,5.20
2022-08-31T13:03:17.258Z,4.85
2022-08-31T13:06:08.210Z,4.75
2022-08-31T13:11:40.815Z,4.20
2022-08-31T13:14:26.760Z,4.43
2022-08-31T13:17:18.869Z,4.47
2022-08-31T13:19:53.424Z,4.80
2022-08-31T13:22:41.661Z,5.13
2022-08-31T13:25:35.882Z,5.28
2022-08-31T13:28:10.710Z,5.25
2022-08-31T13:30:39.797Z,5.00
2022-08-31T13:33:40.448Z,5.07
2022-08-31T13:36:32.069Z,5.53
2022-08-31T13:39:05.702Z,4.88
2022-08-31T13:41:42.653Z,5.28
2022-08-31T13:44:13.837Z,5.82
2022-08-31T13:47:00.098Z,5.70
2022-08-31T13:49:41.951Z,5.65
2022-08-31T13:52:30.684Z,5.32
2022-08-31T13:55:04.778Z,5.65
2022-08-31T13:57:35.756Z,5.68
2022-08-31T14:00:27.390Z,5.53
2022-08-31T14:02:58.002Z,5.53
2022-08-31T14:05:36.327Z,5.50
2022-08-31T14:08:08.181Z,5.85
2022-08-31T14:10:46.300Z,5.40
2022-08-31T14:13:14.203Z,5.35
2022-08-31T14:16:02.088Z,5.50
2022-08-31T14:18:42.946Z,6.07
2022-08-31T14:21:20.946Z,5.65
2022-08-31T14:24:02.527Z,5.13
2022-08-31T14:26:41.590Z,5.30
2022-08-31T14:29:13.747Z,5.57
2022-08-31T14:31:52.598Z,5.45
2022-08-31T14:34:25.489Z,5.25
2022-08-31T14:37:10.862Z,5.63
2022-08-31T14:39:46.078Z,6.25
2022-08-31T14:42:21.486Z,4.57
2022-08-31T14:44:58.975Z,4.97
2022-08-31T14:47:31.721Z,5.20
2022-08-31T14:50:05.457Z,5.93
2022-08-31T14:52:44.536Z,5.35
2022-08-31T14:55:14.343Z,5.78
2022-08-31T14:57:51.884Z,5.10
2022-08-31T15:00:22.948Z,5.57
2022-08-31T15:05:24.647Z,4.97
2022-08-31T15:07:54.797Z,5.05
2022-08-31T15:10:25.566Z,6.00
2022-08-31T15:12:54.214Z,5.68
2022-08-31T15:15:21.580Z,5.70
2022-08-31T15:17:51.630Z,5.47
2022-08-31T15:20:20.138Z,5.18
2022-08-31T15:22:48.377Z,5.20
2022-08-31T15:25:16.991Z,5.25
2022-08-31T15:27:44.366Z,6.22
2022-08-31T15:30:18.997Z,7.18
2022-08-31T15:32:48.004Z,6.00
2022-08-31T15:35:19.682Z,6.32
2022-08-31T15:37:56.360Z,6.63
2022-08-31T15:40:28.991Z,6.53
2022-08-31T15:42:56.437Z,6.35
2022-08-31T15:45:25.288Z,7.05
2022-08-31T15:48:10.538Z,6.55
2022-08-31T15:50:37.501Z,6.07
2022-08-31T15:53:11.528Z,6.93
2022-08-31T15:55:40.910Z,6.38
2022-08-31T15:58:09.825Z,6.55
2022-08-31T16:00:38.127Z,6.78
2022-08-31T16:03:06.064Z,6.47
2022-08-31T16:05:35.653Z,6.57
2022-08-31T16:08:03.275Z,5.40
2022-08-31T16:10:30.868Z,5.78
2022-08-31T16:12:58.125Z,5.80
2022-08-31T16:15:26.213Z,5.85
2022-08-31T16:17:57.119Z,5.57
2022-08-31T16:20:24.134Z,5.00
2022-08-31T16:22:51.007Z,4.93
2022-08-31T16:25:20.388Z,5.22
2022-08-31T16:27:47.606Z,4.28
2022-08-31T16:30:15.912Z,4.43
2022-08-31T16:32:43.001Z,4.20
2022-08-31T16:35:11.024Z,4.88
2022-08-31T16:37:37.979Z,4.60
2022-08-31T16:40:05.840Z,4.30
2022-08-31T16:42:32.912Z,3.90
2022-08-31T16:45:02.400Z,4.25
2022-08-31T16:47:29.698Z,4.47
2022-08-31T16:49:58.905Z,4.43
2022-08-31T16:52:27.267Z,4.03
2022-08-31T16:54:58.883Z,4.70
2022-08-31T16:57:29.561Z,3.97
2022-08-31T16:59:58.542Z,4.22
2022-08-31T17:02:26.417Z,4.05
2022-08-31T17:04:54.613Z,4.38
2022-08-31T17:07:24.817Z,4.22
2022-08-31T17:09:57.640Z,4.90
2022-08-31T17:12:26.691Z,4.60
2022-08-31T17:14:53.954Z,4.53
2022-08-31T17:17:25.802Z,4.55
2022-08-31T17:19:56.185Z,4.40
2022-08-31T17:22:31.657Z,4.25
2022-08-31T17:25:04.583Z,4.20
2022-08-31T17:27:34.564Z,4.53
2022-08-31T17:30:06.248Z,4.53
2022-08-31T17:32:37.283Z,4.78
2022-08-31T17:35:11.551Z,4.30
2022-08-31T17:37:41.070Z,4.18
2022-08-31T17:40:09.367Z,4.60
2022-08-31T17:42:36.810Z,4.43
2022-08-31T17:45:06.675Z,5.00
2022-08-31T17:47:35.899Z,4.57
2022-08-31T17:50:03.938Z,4.22
2022-08-31T17:52:30.931Z,4.60
2022-08-31T17:55:01.797Z,4.53
2022-08-31T17:59:56.695Z,4.22
2022-08-31T18:02:32.417Z,4.75
2022-08-31T18:05:00.636Z,4.28
2022-08-31T18:07:28.596Z,4.38
2022-08-31T18:09:59.166Z,4.40
2022-08-31T18:12:27.432Z,4.75
2022-08-31T18:14:57.415Z,4.97
2022-08-31T18:17:26.463Z,5.43
2022-08-31T18:19:54.808Z,5.32
2022-08-31T18:22:21.838Z,4.93
2022-08-31T18:24:48.844Z,4.75
2022-08-31T18:27:15.850Z,5.50
2022-08-31T18:29:44.553Z,4.90
2022-08-31T18:32:12.287Z,4.38
2022-08-31T18:34:47.074Z,4.90
2022-08-31T18:37:21.983Z,5.45
2022-08-31T18:40:08.478Z,5.25
2022-08-31T18:42:56.833Z,5.68
2022-08-31T18:45:26.369Z,5.78
2022-08-31T18:50:46.735Z,5.78
2022-08-31T18:53:29.299Z,5.65
2022-08-31T18:56:09.014Z,6.68
2022-08-31T18:58:37.952Z,5.75
2022-08-31T19:01:10.216Z,5.38
2022-08-31T19:03:40.917Z,6.15
2022-08-31T19:06:08.678Z,6.32
2022-08-31T19:08:36.431Z,6.32
2022-08-31T19:11:07.762Z,6.40
2022-08-31T19:13:35.407Z,6.38
2022-08-31T19:16:14.631Z,5.90
2022-08-31T19:18:44.028Z,6.18
2022-08-31T19:21:33.267Z,6.45
2022-08-31T19:24:03.382Z,6.20
2022-08-31T19:26:49.524Z,6.95
2022-08-31T19:29:22.939Z,6.47
2022-08-31T19:31:50.731Z,6.72
2022-08-31T19:34:24.316Z,7.25
2022-08-31T19:36:54.628Z,6.90
2022-08-31T19:39:26.711Z,7.20
2022-08-31T19:41:57.791Z,7.40
2022-08-31T19:44:29.330Z,6.72
2022-08-31T19:49:58.788Z,6.38
2022-08-31T19:52:25.759Z,6.97
2022-08-31T19:54:52.866Z,6.47
2022-08-31T19:57:21.741Z,7.38
2022-08-31T19:59:49.843Z,7.07
2022-08-31T20:02:18.086Z,7.53
2022-08-31T20:04:45.498Z,7.38
2022-08-31T20:07:13.566Z,7.13
2022-08-31T20:09:40.818Z,7.72
2022-08-31T20:12:08.359Z,8.23
2022-08-31T20:14:35.933Z,8.27
2022-08-31T20:17:03.875Z,8.55
2022-08-31T20:23:13.733Z,8.00
2022-08-31T20:28:26.295Z,8.02
2022-08-31T20:31:00.022Z,9.68
2022-08-31T20:33:27.918Z,8.20
2022-08-31T20:35:55.010Z,9.35
2022-08-31T20:38:21.923Z,8.73
2022-08-31T20:40:53.190Z,9.13
2022-08-31T20:43:22.047Z,8.65
2022-08-31T20:45:50.239Z,8.85
2022-08-31T20:48:35.607Z,8.80
2022-08-31T20:51:19.979Z,9.05
2022-08-31T20:53:48.696Z,9.10
2022-08-31T20:56:18.079Z,8.60
2022-08-31T20:58:48.342Z,9.07
2022-08-31T21:01:15.942Z,8.68
2022-08-31T21:03:43.367Z,8.60
2022-08-31T21:06:12.197Z,9.55
2022-08-31T21:08:42.503Z,8.70
2022-08-31T21:11:15.241Z,8.57
2022-08-31T21:13:43.778Z,8.00
2022-08-31T21:16:11.066Z,7.93
2022-08-31T21:18:39.967Z,8.10
2022-08-31T21:21:16.482Z,7.53
2022-08-31T21:23:46.455Z,8.25
2022-08-31T21:26:21.454Z,8.30
2022-08-31T21:28:53.578Z,7.30
2022-08-31T21:31:27.616Z,8.48
2022-08-31T21:34:02.311Z,8.43
2022-08-31T21:36:33.647Z,8.07
2022-08-31T21:39:01.568Z,8.77
2022-08-31T21:41:29.383Z,8.55
2022-08-31T21:43:57.916Z,8.40
2022-08-31T21:46:28.500Z,8.48
2022-08-31T21:48:58.579Z,8.50
2022-08-31T21:51:53.484Z,7.80
2022-08-31T21:54:27.120Z,7.95
2022-08-31T21:57:00.856Z,7.80
2022-08-31T21:59:33.134Z,7.75
2022-08-31T22:02:05.164Z,7.65
2022-08-31T22:04:35.804Z,7.40
2022-08-31T22:07:03.351Z,7.45
2022-08-31T22:09:31.504Z,7.60
2022-08-31T22:11:59.857Z,7.93
2022-08-31T22:14:31.875Z,8.38
2022-08-31T22:17:03.702Z,7.43
2022-08-31T22:19:34.041Z,7.95
2022-08-31T22:22:00.986Z,7.60
2022-08-31T22:24:34.005Z,8.27
2022-08-31T22:27:08.436Z,8.18
2022-08-31T22:29:37.659Z,7.45
2022-08-31T22:32:12.099Z,7.60
2022-08-31T22:34:40.663Z,8.27
2022-08-31T22:37:13.842Z,7.72
2022-08-31T22:39:42.483Z,8.10
2022-08-31T22:42:09.908Z,7.60
2022-08-31T22:44:37.700Z,6.47
2022-08-31T22:47:05.243Z,7.32
2022-08-31T22:49:32.851Z,7.10
2022-08-31T22:51:59.700Z,7.97
2022-08-31T22:54:26.859Z,7.85
2022-08-31T22:56:54.153Z,7.55
2022-08-31T22:59:27.414Z,7.53
2022-08-31T23:02:03.155Z,8.00
2022-08-31T23:04:34.123Z,7.72
2022-08-31T23:07:04.242Z,8.45
2022-08-31T23:09:33.726Z,7.07
2022-08-31T23:12:03.863Z,8.27
2022-08-31T23:14:32.712Z,8.80
2022-08-31T23:17:05.436Z,8.15
2022-08-31T23:19:40.251Z,9.20
2022-08-31T23:22:11.207Z,9.13
2022-08-31T23:24:44.753Z,9.85
2022-08-31T23:27:16.987Z,10.55
2022-08-31T23:29:56.468Z,10.43
2022-08-31T23:32:27.797Z,11.40
2022-08-31T23:34:57.969Z,11.27
2022-08-31T23:37:27.318Z,10.57
2022-08-31T23:39:55.948Z,11.10
2022-08-31T23:42:27.178Z,10.80
2022-08-31T23:44:55.317Z,10.32
2022-08-31T23:47:26.846Z,10.98
2022-08-31T23:49:54.041Z,10.75
2022-08-31T23:52:25.502Z,10.75
2022-08-31T23:55:00.370Z,11.07
2022-08-31T23:57:32.818Z,11.85
